Camp Dix, Kentucky
Current Conditions -  °F | °C
As of 9:10 AM on Saturday 25 Oct 2014 (Local Time) from KSYM Reporting Station
Clear Clear  
Wind Chill: 46°   Ceiling: Unl
Heat Index: 46°   Visibility: 10mi
Dew Point: 43°   Wind: 0mph
Humidity: 87%   Direction: NA
Pressure: 30.06"   Gusts: NA
Location:  38.48°N, 83.29°W
Report Text: KSYM 251310Z AUTO 00000KT 10SM CLR 08/06 A3006 RMK AO2
Loading
Personal Weather Stations






























Interactive Weather Map
Tropical Storm Tracking
New forecast layout! Learn more

10-Day Weather Forecast

Advertisements
Track Severe Weather on mobile